Time;durP1;ratioP1;P1;durP2;ratioP2;P2;SDS_P1;SDS_P2;PMS_P1;PMS_P2;Temp;Humidity;BMP_temperature;BMP_pressure;BME280_temperature;BME280_humidity;BME280_pressure;Samples;Min_cycle;Max_cycle;Signal;HPM_P1;HPM_P2
2023/12/10 00:01:52;;;;;;;55.37;1.97;;;;;;;;;;5093346;28;20543;-72
2023/12/10 00:04:19;;;;;;;55.47;1.90;;;;;;;;;;5093921;28;20444;-73
2023/12/10 00:06:46;;;;;;;55.50;1.90;;;;;;;;;;5093506;28;20479;-73
2023/12/10 00:09:15;;;;;;;55.50;1.93;;;;;;;;;;5093589;28;20961;-73
2023/12/10 00:11:42;;;;;;;55.60;2.20;;;;;;;;;;5093408;28;20454;-73
2023/12/10 00:14:09;;;;;;;55.60;2.20;;;;;;;;;;5093642;28;20460;-73
2023/12/10 00:16:36;;;;;;;55.40;1.80;;;;;;;;;;5093121;28;20552;-73
2023/12/10 00:19:03;;;;;;;54.87;1.80;;;;;;;;;;5093439;28;20536;-73
2023/12/10 00:21:30;;;;;;;55.60;2.13;;;;;;;;;;5093179;28;20458;-73
2023/12/10 00:23:58;;;;;;;55.60;2.40;;;;;;;;;;5093433;28;20493;-73
2023/12/10 00:26:26;;;;;;;55.70;2.17;;;;;;;;;;5093229;28;20537;-73
2023/12/10 00:28:53;;;;;;;55.70;2.10;;;;;;;;;;5093129;28;20503;-73
2023/12/10 00:31:21;;;;;;;55.60;2.10;;;;;;;;;;5093130;28;20449;-73
2023/12/10 00:33:48;;;;;;;55.63;1.93;;;;;;;;;;5093197;28;20469;-73
2023/12/10 00:36:16;;;;;;;55.80;2.10;;;;;;;;;;5093168;28;20456;-73
2023/12/10 00:38:43;;;;;;;55.30;2.10;;;;;;;;;;5093180;28;20840;-73
2023/12/10 00:41:11;;;;;;;55.70;2.20;;;;;;;;;;5092927;28;20444;-73
2023/12/10 00:43:41;;;;;;;55.70;2.20;;;;;;;;;;5092601;28;20495;-73
2023/12/10 00:46:08;;;;;;;56.10;2.63;;;;;;;;;;5092807;28;20463;-73
2023/12/10 00:48:36;;;;;;;55.37;1.80;;;;;;;;;;5092648;28;20460;-73
2023/12/10 00:51:04;;;;;;;55.47;2.00;;;;;;;;;;5092937;28;20452;-73
2023/12/10 00:53:31;;;;;;;55.60;1.90;;;;;;;;;;5092865;28;20551;-73
2023/12/10 00:55:58;;;;;;;55.53;2.10;;;;;;;;;;5092819;28;20449;-73
2023/12/10 00:58:25;;;;;;;57.43;2.27;;;;;;;;;;5092798;28;20442;-73
2023/12/10 01:00:54;;;;;;;55.60;1.93;;;;;;;;;;5092534;28;20822;-73
2023/12/10 01:03:21;;;;;;;55.43;1.87;;;;;;;;;;5092584;28;20561;-73
2023/12/10 01:05:49;;;;;;;55.37;1.80;;;;;;;;;;5092573;28;20549;-73
2023/12/10 01:08:16;;;;;;;55.77;2.33;;;;;;;;;;5092574;28;20456;-73
2023/12/10 01:10:43;;;;;;;55.17;2.13;;;;;;;;;;5093033;28;20493;-73
2023/12/10 01:13:10;;;;;;;55.20;1.87;;;;;;;;;;5092285;28;20463;-73
2023/12/10 01:15:37;;;;;;;55.37;2.13;;;;;;;;;;5092104;28;20741;-73
2023/12/10 01:18:06;;;;;;;55.70;2.10;;;;;;;;;;5092348;28;20832;-73
2023/12/10 01:20:34;;;;;;;54.97;2.13;;;;;;;;;;5092524;28;20450;-73
2023/12/10 01:23:04;;;;;;;65.83;2.30;;;;;;;;;;5092123;28;20495;-73
2023/12/10 01:25:31;;;;;;;55.87;2.10;;;;;;;;;;5092063;28;20524;-73
2023/12/10 01:27:58;;;;;;;55.27;2.20;;;;;;;;;;5083836;28;20445;-74
2023/12/10 01:30:25;;;;;;;55.50;2.10;;;;;;;;;;5092122;28;20921;-73
2023/12/10 01:32:53;;;;;;;56.00;2.67;;;;;;;;;;5092351;28;20472;-73
2023/12/10 01:35:22;;;;;;;55.67;2.20;;;;;;;;;;5092060;28;20920;-73
2023/12/10 01:37:49;;;;;;;55.60;2.10;;;;;;;;;;5092376;28;20538;-73
2023/12/10 01:40:16;;;;;;;55.50;2.20;;;;;;;;;;5092303;28;20450;-74
2023/12/10 01:42:44;;;;;;;55.27;2.23;;;;;;;;;;5091525;28;21051;-73
2023/12/10 01:45:11;;;;;;;55.43;1.97;;;;;;;;;;5091759;28;20457;-73
2023/12/10 01:47:40;;;;;;;56.20;2.70;;;;;;;;;;5091999;28;20449;-73
2023/12/10 01:50:11;;;;;;;54.97;2.17;;;;;;;;;;5092148;28;20449;-74
2023/12/10 01:52:40;;;;;;;55.60;1.80;;;;;;;;;;5091464;28;20614;-74
2023/12/10 01:55:09;;;;;;;59.97;2.17;;;;;;;;;;5091622;28;20522;-74
2023/12/10 01:57:36;;;;;;;55.63;2.00;;;;;;;;;;5092097;28;20494;-74
2023/12/10 02:00:05;;;;;;;55.83;2.23;;;;;;;;;;5092387;28;21036;-74
2023/12/10 02:02:33;;;;;;;55.60;2.27;;;;;;;;;;5091698;28;20523;-73
2023/12/10 02:05:05;;;;;;;55.37;2.20;;;;;;;;;;5091949;28;20449;-74
2023/12/10 02:07:32;;;;;;;57.03;2.37;;;;;;;;;;5092030;28;20512;-73
2023/12/10 02:10:01;;;;;;;55.17;2.40;;;;;;;;;;5092101;28;20442;-73
2023/12/10 02:12:28;;;;;;;55.70;2.10;;;;;;;;;;5091770;28;20515;-74
2023/12/10 02:14:55;;;;;;;55.67;1.90;;;;;;;;;;5091565;28;21026;-73
2023/12/10 02:17:23;;;;;;;55.07;1.80;;;;;;;;;;5092084;28;20889;-74
2023/12/10 02:19:50;;;;;;;55.50;1.90;;;;;;;;;;5092037;28;20454;-73
2023/12/10 02:22:19;;;;;;;55.90;2.10;;;;;;;;;;5091029;28;20549;-73
2023/12/10 02:24:50;;;;;;;55.37;1.90;;;;;;;;;;5090938;28;20576;-73
2023/12/10 02:27:18;;;;;;;55.40;1.73;;;;;;;;;;5091429;28;21023;-73
2023/12/10 02:29:45;;;;;;;55.70;2.40;;;;;;;;;;5091247;28;20447;-73
2023/12/10 02:32:12;;;;;;;55.40;1.90;;;;;;;;;;5090831;28;20541;-73
2023/12/10 02:34:40;;;;;;;54.97;1.90;;;;;;;;;;5091258;28;20449;-73
2023/12/10 02:37:07;;;;;;;55.50;1.87;;;;;;;;;;5091666;28;20457;-73
2023/12/10 02:39:34;;;;;;;55.30;1.80;;;;;;;;;;5091245;28;20452;-74
2023/12/10 02:42:02;;;;;;;55.57;1.80;;;;;;;;;;5090908;28;20447;-74
2023/12/10 02:44:30;;;;;;;55.70;2.10;;;;;;;;;;5090904;28;20518;-73
2023/12/10 02:46:57;;;;;;;58.73;2.60;;;;;;;;;;5090933;28;20450;-73
2023/12/10 02:49:24;;;;;;;56.47;3.33;;;;;;;;;;5090925;28;20450;-74
2023/12/10 02:51:51;;;;;;;55.70;2.00;;;;;;;;;;5090926;28;20535;-73
2023/12/10 02:54:19;;;;;;;55.57;2.20;;;;;;;;;;5091078;28;20466;-74
2023/12/10 02:56:46;;;;;;;55.53;2.13;;;;;;;;;;5090648;28;20540;-73
2023/12/10 02:59:13;;;;;;;55.77;1.90;;;;;;;;;;5090779;28;20447;-73
2023/12/10 03:01:41;;;;;;;55.37;2.10;;;;;;;;;;5091032;28;20446;-74
2023/12/10 03:04:08;;;;;;;55.57;2.13;;;;;;;;;;5094293;28;20576;-73
2023/12/10 03:06:35;;;;;;;55.50;2.20;;;;;;;;;;5094686;28;20455;-73
2023/12/10 03:09:02;;;;;;;55.57;2.20;;;;;;;;;;5094701;28;21009;-73
2023/12/10 03:11:29;;;;;;;55.57;2.23;;;;;;;;;;5094838;28;20452;-73
2023/12/10 03:13:56;;;;;;;56.10;2.30;;;;;;;;;;5094782;28;20469;-73
2023/12/10 03:16:23;;;;;;;55.87;2.30;;;;;;;;;;5094757;28;20445;-73
2023/12/10 03:18:52;;;;;;;55.50;2.43;;;;;;;;;;5094827;28;20558;-73
2023/12/10 03:21:19;;;;;;;55.70;2.07;;;;;;;;;;5094673;28;20504;-73
2023/12/10 03:23:46;;;;;;;55.53;2.73;;;;;;;;;;5094436;28;21063;-73
2023/12/10 03:26:13;;;;;;;55.40;2.30;;;;;;;;;;5094314;28;20536;-73
2023/12/10 03:28:40;;;;;;;55.60;2.30;;;;;;;;;;5094616;28;20536;-73
2023/12/10 03:31:07;;;;;;;55.50;2.30;;;;;;;;;;5094653;28;20543;-73
2023/12/10 03:33:35;;;;;;;55.50;2.30;;;;;;;;;;5094525;28;20556;-73
2023/12/10 03:36:03;;;;;;;58.20;2.53;;;;;;;;;;5094344;28;20444;-73
2023/12/10 03:38:31;;;;;;;55.60;2.70;;;;;;;;;;5094173;28;20487;-73
2023/12/10 03:40:58;;;;;;;55.67;2.40;;;;;;;;;;5094081;28;20536;-73
2023/12/10 03:43:25;;;;;;;55.70;2.40;;;;;;;;;;5093924;28;20520;-73
2023/12/10 03:45:52;;;;;;;55.53;2.30;;;;;;;;;;5093873;28;20474;-73
2023/12/10 03:48:20;;;;;;;55.63;2.30;;;;;;;;;;5094037;28;20487;-73
2023/12/10 03:50:47;;;;;;;55.80;2.80;;;;;;;;;;5093990;28;20536;-73
2023/12/10 03:53:15;;;;;;;55.77;2.40;;;;;;;;;;5093772;28;20521;-73
2023/12/10 03:55:42;;;;;;;55.60;2.47;;;;;;;;;;5093943;28;20539;-73
2023/12/10 03:58:10;;;;;;;55.67;2.30;;;;;;;;;;5093882;28;20533;-73
2023/12/10 04:00:37;;;;;;;56.53;4.83;;;;;;;;;;5094020;28;20992;-73
2023/12/10 04:03:04;;;;;;;55.70;2.80;;;;;;;;;;5093397;28;20547;-73
2023/12/10 04:05:31;;;;;;;56.00;2.50;;;;;;;;;;5093754;28;20886;-72
2023/12/10 04:07:58;;;;;;;55.67;2.40;;;;;;;;;;5093524;28;20516;-73
2023/12/10 04:10:27;;;;;;;55.50;2.30;;;;;;;;;;5093718;28;20453;-73
2023/12/10 04:12:54;;;;;;;58.53;3.07;;;;;;;;;;5093308;28;20550;-73
2023/12/10 04:15:21;;;;;;;55.70;2.27;;;;;;;;;;5092573;28;20532;-73
2023/12/10 04:17:49;;;;;;;55.57;2.20;;;;;;;;;;5093347;28;20548;-73
2023/12/10 04:20:16;;;;;;;55.37;1.90;;;;;;;;;;5093771;28;20891;-73
2023/12/10 04:22:43;;;;;;;55.97;3.10;;;;;;;;;;5093433;28;20500;-73
2023/12/10 04:25:10;;;;;;;55.50;2.20;;;;;;;;;;5093258;28;20931;-73
2023/12/10 04:27:39;;;;;;;55.77;2.30;;;;;;;;;;5093440;28;20988;-73
2023/12/10 04:30:07;;;;;;;56.10;2.40;;;;;;;;;;5093616;28;20503;-74
2023/12/10 04:32:34;;;;;;;55.37;1.97;;;;;;;;;;5093241;28;20552;-73
2023/12/10 04:35:01;;;;;;;55.67;2.50;;;;;;;;;;5093434;28;21581;-74
2023/12/10 04:37:28;;;;;;;55.33;2.00;;;;;;;;;;5093672;28;20536;-74
2023/12/10 04:39:57;;;;;;;55.17;1.80;;;;;;;;;;5093376;28;20542;-74
2023/12/10 04:42:24;;;;;;;55.50;2.00;;;;;;;;;;5093062;28;20999;-74
2023/12/10 04:44:52;;;;;;;55.40;2.03;;;;;;;;;;5093337;28;21075;-73
2023/12/10 04:47:20;;;;;;;55.40;2.00;;;;;;;;;;5093308;28;20500;-73
2023/12/10 04:49:47;;;;;;;55.60;2.00;;;;;;;;;;5093140;28;20483;-73
2023/12/10 04:52:14;;;;;;;55.60;2.60;;;;;;;;;;5092818;28;20497;-73
2023/12/10 04:54:41;;;;;;;55.43;2.10;;;;;;;;;;5092981;28;20474;-73
2023/12/10 04:57:08;;;;;;;55.77;3.00;;;;;;;;;;5085161;28;20497;-74
2023/12/10 04:59:36;;;;;;;55.47;2.10;;;;;;;;;;5093025;28;20941;-74
2023/12/10 05:02:04;;;;;;;55.60;2.07;;;;;;;;;;5092502;28;21006;-73
2023/12/10 05:04:31;;;;;;;55.37;2.17;;;;;;;;;;5092665;28;20549;-73
2023/12/10 05:06:58;;;;;;;55.60;2.13;;;;;;;;;;5092619;28;20480;-74
2023/12/10 05:09:26;;;;;;;55.30;1.90;;;;;;;;;;5092543;28;20484;-73
2023/12/10 05:11:54;;;;;;;55.47;2.10;;;;;;;;;;5092987;28;20456;-73
2023/12/10 05:14:21;;;;;;;55.40;2.10;;;;;;;;;;5093390;28;20623;-72
2023/12/10 05:16:48;;;;;;;55.50;1.97;;;;;;;;;;5092541;28;20544;-73
2023/12/10 05:19:16;;;;;;;55.37;1.90;;;;;;;;;;5093346;28;20537;-73
2023/12/10 05:21:43;;;;;;;55.47;2.00;;;;;;;;;;5092595;28;20450;-73
2023/12/10 05:24:11;;;;;;;55.40;2.20;;;;;;;;;;5084214;28;20565;-73
2023/12/10 05:26:38;;;;;;;55.60;1.80;;;;;;;;;;5091469;28;20492;-75
2023/12/10 05:29:05;;;;;;;55.40;2.37;;;;;;;;;;5092645;28;20501;-73
2023/12/10 05:31:32;;;;;;;55.50;2.10;;;;;;;;;;5092549;28;21009;-73
2023/12/10 05:33:59;;;;;;;55.60;1.90;;;;;;;;;;5092889;28;20475;-73
2023/12/10 05:36:28;;;;;;;55.53;2.00;;;;;;;;;;5093187;28;20527;-74
2023/12/10 05:38:55;;;;;;;55.77;2.50;;;;;;;;;;5093115;28;20890;-73
2023/12/10 05:41:22;;;;;;;55.67;2.10;;;;;;;;;;5092707;28;20972;-73
2023/12/10 05:43:49;;;;;;;55.50;2.10;;;;;;;;;;5092214;28;21054;-73
2023/12/10 05:46:17;;;;;;;55.37;2.10;;;;;;;;;;5092297;28;20542;-73
2023/12/10 05:48:44;;;;;;;55.57;2.10;;;;;;;;;;5092559;28;20453;-73
2023/12/10 05:51:11;;;;;;;55.53;1.93;;;;;;;;;;5092100;28;20516;-73
2023/12/10 05:53:39;;;;;;;55.33;2.10;;;;;;;;;;5092157;28;20500;-73
2023/12/10 05:56:08;;;;;;;55.50;2.30;;;;;;;;;;5094161;28;20524;-74
2023/12/10 05:58:35;;;;;;;60.27;2.27;;;;;;;;;;5094430;28;20960;-73
2023/12/10 06:01:02;;;;;;;61.27;2.43;;;;;;;;;;5094515;28;20455;-74
2023/12/10 06:03:30;;;;;;;55.57;2.10;;;;;;;;;;5095058;28;20500;-73
2023/12/10 06:05:58;;;;;;;55.57;2.13;;;;;;;;;;5095886;28;21018;-73
2023/12/10 06:08:25;;;;;;;55.43;2.40;;;;;;;;;;5095782;28;20469;-74
2023/12/10 06:10:54;;;;;;;55.50;2.20;;;;;;;;;;5095308;28;20510;-73
2023/12/10 06:13:21;;;;;;;55.67;2.30;;;;;;;;;;5094624;28;20470;-73
2023/12/10 06:15:48;;;;;;;55.47;2.00;;;;;;;;;;5094214;28;20486;-74
2023/12/10 06:18:16;;;;;;;55.57;2.40;;;;;;;;;;5095222;28;20447;-73
2023/12/10 06:20:44;;;;;;;56.10;2.50;;;;;;;;;;5094083;28;20553;-73
2023/12/10 06:23:11;;;;;;;55.40;1.97;;;;;;;;;;5092428;28;20536;-73
2023/12/10 06:25:38;;;;;;;55.57;2.00;;;;;;;;;;5091780;28;20929;-73
2023/12/10 06:28:07;;;;;;;55.23;2.00;;;;;;;;;;5091661;28;21019;-73
2023/12/10 06:30:34;;;;;;;55.60;2.33;;;;;;;;;;5092077;28;20540;-73
2023/12/10 06:33:01;;;;;;;55.57;2.27;;;;;;;;;;5091744;28;20891;-73
2023/12/10 06:35:28;;;;;;;55.37;2.00;;;;;;;;;;5091496;28;20523;-73
2023/12/10 06:37:55;;;;;;;57.50;3.63;;;;;;;;;;5090860;28;20449;-73
2023/12/10 06:40:23;;;;;;;55.37;2.10;;;;;;;;;;5091942;28;20529;-73
2023/12/10 06:42:50;;;;;;;55.57;2.20;;;;;;;;;;5091840;28;20554;-73
2023/12/10 06:45:19;;;;;;;55.57;2.00;;;;;;;;;;5091386;28;21072;-73
2023/12/10 06:47:47;;;;;;;55.60;2.10;;;;;;;;;;5091678;28;20451;-72
2023/12/10 06:50:14;;;;;;;55.30;2.17;;;;;;;;;;5091243;28;20446;-73
2023/12/10 06:52:41;;;;;;;55.50;1.97;;;;;;;;;;5091053;28;20544;-73
2023/12/10 06:55:09;;;;;;;55.57;2.00;;;;;;;;;;5091512;28;20485;-73
2023/12/10 06:57:36;;;;;;;55.57;2.23;;;;;;;;;;5091605;28;20452;-73
2023/12/10 07:00:04;;;;;;;55.77;2.73;;;;;;;;;;5091360;28;21031;-73
2023/12/10 07:02:32;;;;;;;55.57;2.30;;;;;;;;;;5091357;28;20468;-74
2023/12/10 07:04:59;;;;;;;55.37;2.00;;;;;;;;;;5090859;28;20587;-73
2023/12/10 07:07:26;;;;;;;55.70;2.90;;;;;;;;;;5091568;28;20444;-73
2023/12/10 07:09:54;;;;;;;55.90;2.20;;;;;;;;;;5091016;28;20466;-73
2023/12/10 07:12:21;;;;;;;55.70;2.10;;;;;;;;;;5091127;28;21078;-73
2023/12/10 07:14:48;;;;;;;55.57;2.07;;;;;;;;;;5090958;28;20483;-73
2023/12/10 07:17:15;;;;;;;55.67;2.13;;;;;;;;;;5090922;28;20461;-74
2023/12/10 07:19:44;;;;;;;55.67;1.93;;;;;;;;;;5090891;28;20446;-73
2023/12/10 07:22:11;;;;;;;55.57;2.07;;;;;;;;;;5090529;28;20440;-73
2023/12/10 07:24:38;;;;;;;55.43;2.33;;;;;;;;;;5091239;28;20575;-73
2023/12/10 07:27:06;;;;;;;57.60;3.40;;;;;;;;;;5090969;28;20448;-74
2023/12/10 07:29:33;;;;;;;55.53;2.13;;;;;;;;;;5090965;28;20950;-73
2023/12/10 07:32:00;;;;;;;55.60;2.17;;;;;;;;;;5091393;28;20460;-73
2023/12/10 07:34:27;;;;;;;55.57;2.30;;;;;;;;;;5091548;28;20532;-73
2023/12/10 07:36:56;;;;;;;55.57;2.40;;;;;;;;;;5091516;28;20888;-73
2023/12/10 07:39:23;;;;;;;55.77;2.40;;;;;;;;;;5091443;28;20447;-73
2023/12/10 07:41:51;;;;;;;55.47;2.53;;;;;;;;;;5091649;28;20452;-73
2023/12/10 07:44:18;;;;;;;55.70;2.43;;;;;;;;;;5092004;28;20556;-73
2023/12/10 07:46:45;;;;;;;55.70;2.40;;;;;;;;;;5093921;28;20603;-74
2023/12/10 07:49:12;;;;;;;55.90;2.60;;;;;;;;;;5095058;28;20448;-74
2023/12/10 07:51:39;;;;;;;56.27;2.37;;;;;;;;;;5097663;28;20481;-74
2023/12/10 07:54:08;;;;;;;55.70;2.40;;;;;;;;;;5097413;28;20560;-74
2023/12/10 07:56:35;;;;;;;55.37;2.10;;;;;;;;;;5096717;28;20476;-74
2023/12/10 07:59:02;;;;;;;55.70;2.43;;;;;;;;;;5097886;28;20520;-74
2023/12/10 08:01:30;;;;;;;55.77;2.10;;;;;;;;;;5097316;28;20986;-74
2023/12/10 08:03:57;;;;;;;55.57;2.30;;;;;;;;;;5100234;28;20521;-74
2023/12/10 08:06:24;;;;;;;55.27;2.20;;;;;;;;;;5097576;28;21087;-74
2023/12/10 08:08:51;;;;;;;55.50;2.30;;;;;;;;;;5095786;28;20468;-75
2023/12/10 08:11:20;;;;;;;55.60;2.20;;;;;;;;;;5095374;28;20865;-74
2023/12/10 08:13:47;;;;;;;55.77;2.63;;;;;;;;;;5098195;28;20567;-74
2023/12/10 08:16:14;;;;;;;55.67;2.17;;;;;;;;;;5098239;28;20444;-74
2023/12/10 08:18:42;;;;;;;55.60;2.07;;;;;;;;;;5096975;28;20521;-74
2023/12/10 08:21:09;;;;;;;55.73;2.30;;;;;;;;;;5097257;28;20455;-75
2023/12/10 08:23:36;;;;;;;55.67;2.20;;;;;;;;;;5096740;28;20564;-75
2023/12/10 08:26:04;;;;;;;56.00;2.40;;;;;;;;;;5095532;28;20521;-75
2023/12/10 08:28:33;;;;;;;55.47;2.03;;;;;;;;;;5096102;28;20476;-74
2023/12/10 08:31:00;;;;;;;55.77;2.53;;;;;;;;;;5095998;28;20563;-74
2023/12/10 08:33:27;;;;;;;55.60;2.20;;;;;;;;;;5095771;28;21009;-74
2023/12/10 08:35:55;;;;;;;55.40;2.10;;;;;;;;;;5095066;28;21009;-74
2023/12/10 08:38:22;;;;;;;55.80;2.47;;;;;;;;;;5095025;28;20485;-74
2023/12/10 08:40:49;;;;;;;55.70;2.17;;;;;;;;;;5096168;28;20535;-74
2023/12/10 08:43:17;;;;;;;55.70;2.43;;;;;;;;;;5095455;28;20984;-74
2023/12/10 08:45:46;;;;;;;55.77;2.63;;;;;;;;;;5094871;28;20483;-74
2023/12/10 08:48:13;;;;;;;55.60;2.00;;;;;;;;;;5094321;28;20459;-74
2023/12/10 08:50:40;;;;;;;56.30;2.97;;;;;;;;;;5094307;28;20457;-74
2023/12/10 08:53:08;;;;;;;55.47;2.23;;;;;;;;;;5094967;28;21061;-74
2023/12/10 08:55:35;;;;;;;56.83;3.63;;;;;;;;;;5094395;28;20960;-74
2023/12/10 08:58:02;;;;;;;55.77;2.20;;;;;;;;;;5094413;28;20605;-75
2023/12/10 09:00:29;;;;;;;55.57;2.20;;;;;;;;;;5094230;28;20514;-74
2023/12/10 09:02:57;;;;;;;55.70;2.30;;;;;;;;;;5093630;28;20557;-74
2023/12/10 09:05:25;;;;;;;55.37;2.00;;;;;;;;;;5094827;28;20480;-74
2023/12/10 09:07:52;;;;;;;56.30;2.60;;;;;;;;;;5094822;28;20492;-74
2023/12/10 09:10:19;;;;;;;56.60;2.20;;;;;;;;;;5094655;28;20442;-74
2023/12/10 09:12:46;;;;;;;57.80;4.47;;;;;;;;;;5094827;28;20503;-73
2023/12/10 09:15:13;;;;;;;55.90;2.40;;;;;;;;;;5093492;28;20515;-74
2023/12/10 09:17:41;;;;;;;55.57;2.10;;;;;;;;;;5093159;28;20979;-74
2023/12/10 09:20:10;;;;;;;55.37;2.00;;;;;;;;;;5093054;28;20544;-74
2023/12/10 09:22:37;;;;;;;55.17;1.83;;;;;;;;;;5092495;28;20468;-72
2023/12/10 09:25:04;;;;;;;55.70;2.30;;;;;;;;;;5092830;28;20496;-73
2023/12/10 09:27:32;;;;;;;55.77;2.30;;;;;;;;;;5093323;28;20450;-73
2023/12/10 09:29:59;;;;;;;55.47;2.17;;;;;;;;;;5092708;28;20452;-73
2023/12/10 09:32:27;;;;;;;55.57;2.23;;;;;;;;;;5092518;28;20979;-74
2023/12/10 09:34:54;;;;;;;55.70;2.03;;;;;;;;;;5092030;28;20459;-73
2023/12/10 09:37:22;;;;;;;55.80;2.20;;;;;;;;;;5092635;28;20512;-73
2023/12/10 09:39:49;;;;;;;55.33;2.00;;;;;;;;;;5092129;28;20456;-73
2023/12/10 09:42:16;;;;;;;55.60;2.20;;;;;;;;;;5091928;28;21078;-73
2023/12/10 09:44:44;;;;;;;55.47;2.23;;;;;;;;;;5091897;28;20805;-74
2023/12/10 09:47:12;;;;;;;55.33;2.00;;;;;;;;;;5092021;28;20465;-73
2023/12/10 09:49:40;;;;;;;55.70;1.90;;;;;;;;;;5091669;28;20964;-73
2023/12/10 09:52:07;;;;;;;55.37;2.30;;;;;;;;;;5092105;28;20451;-73
2023/12/10 09:54:37;;;;;;;55.60;1.80;;;;;;;;;;5092133;28;20528;-73
2023/12/10 09:57:04;;;;;;;55.80;2.00;;;;;;;;;;5091912;28;20936;-73
2023/12/10 09:59:31;;;;;;;55.27;2.10;;;;;;;;;;5092153;28;20552;-73
2023/12/10 10:01:58;;;;;;;55.67;2.70;;;;;;;;;;5091516;28;20456;-73
2023/12/10 10:04:25;;;;;;;55.57;2.00;;;;;;;;;;5091973;28;20548;-73
2023/12/10 10:06:53;;;;;;;55.60;2.40;;;;;;;;;;5085829;28;20503;-73
2023/12/10 10:09:20;;;;;;;56.20;2.30;;;;;;;;;;5069171;28;20460;-73
2023/12/10 10:11:50;;;;;;;55.80;2.20;;;;;;;;;;5073327;28;20454;-73
2023/12/10 10:14:17;;;;;;;56.00;2.70;;;;;;;;;;5090419;28;20476;-71
2023/12/10 10:16:48;;;;;;;55.57;2.20;;;;;;;;;;5090687;28;20458;-73
2023/12/10 10:19:15;;;;;;;55.57;1.97;;;;;;;;;;5089249;28;20964;-74
2023/12/10 10:21:42;;;;;;;55.87;2.70;;;;;;;;;;5082083;28;20453;-73
2023/12/10 10:24:11;;;;;;;55.57;2.27;;;;;;;;;;5090843;28;20981;-73
2023/12/10 10:26:38;;;;;;;55.37;1.83;;;;;;;;;;5090761;28;20580;-74
2023/12/10 10:29:08;;;;;;;55.80;2.10;;;;;;;;;;5090486;28;20830;-73
2023/12/10 10:31:35;;;;;;;55.67;1.93;;;;;;;;;;5090609;28;20809;-73
2023/12/10 10:34:04;;;;;;;55.43;2.20;;;;;;;;;;5091031;28;20558;-73
2023/12/10 10:36:31;;;;;;;55.43;2.00;;;;;;;;;;5090518;28;20453;-73
2023/12/10 10:38:58;;;;;;;55.77;2.03;;;;;;;;;;5088320;28;20530;-73
2023/12/10 10:41:26;;;;;;;55.37;2.07;;;;;;;;;;5082657;28;20452;-73
2023/12/10 10:43:54;;;;;;;55.40;1.97;;;;;;;;;;5090697;28;20472;-73
2023/12/10 10:46:23;;;;;;;55.70;2.10;;;;;;;;;;5090730;28;20913;-73
2023/12/10 10:48:52;;;;;;;55.80;2.17;;;;;;;;;;5090336;28;20464;-74
2023/12/10 10:51:21;;;;;;;55.70;2.10;;;;;;;;;;5089623;28;20450;-73
2023/12/10 10:53:49;;;;;;;55.67;2.07;;;;;;;;;;5088099;28;20476;-74
2023/12/10 10:56:17;;;;;;;55.30;2.03;;;;;;;;;;5090411;28;20473;-74
2023/12/10 10:58:44;;;;;;;55.70;1.80;;;;;;;;;;5090841;28;20457;-74
2023/12/10 11:01:26;;;;;;;55.47;1.87;;;;;;;;;;5087298;28;20543;-72
2023/12/10 11:03:56;;;;;;;55.53;1.87;;;;;;;;;;5090249;28;20464;-72
2023/12/10 11:06:23;;;;;;;55.70;2.57;;;;;;;;;;5090532;28;20929;-72
2023/12/10 11:08:56;;;;;;;55.70;1.90;;;;;;;;;;5090570;28;20588;-72
2023/12/10 11:11:26;;;;;;;55.40;2.03;;;;;;;;;;5084584;28;20752;-74
2023/12/10 11:13:54;;;;;;;55.60;1.83;;;;;;;;;;5086480;28;20468;-72
2023/12/10 11:16:22;;;;;;;55.90;1.97;;;;;;;;;;5090716;28;20532;-73
2023/12/10 11:18:53;;;;;;;55.77;2.00;;;;;;;;;;5090684;28;20843;-74
2023/12/10 11:21:21;;;;;;;55.67;2.00;;;;;;;;;;5088076;28;20597;-74
2023/12/10 11:23:49;;;;;;;57.90;3.90;;;;;;;;;;5091767;28;20529;-74
2023/12/10 11:26:16;;;;;;;56.13;2.40;;;;;;;;;;5093746;28;20493;-74
2023/12/10 11:28:43;;;;;;;55.70;2.27;;;;;;;;;;5094591;28;21001;-75
2023/12/10 11:31:10;;;;;;;55.60;2.20;;;;;;;;;;5094487;28;20484;-75
2023/12/10 11:33:40;;;;;;;55.70;1.90;;;;;;;;;;5094176;28;21059;-74
2023/12/10 11:36:08;;;;;;;55.53;2.30;;;;;;;;;;5090750;28;20449;-75
2023/12/10 11:38:37;;;;;;;55.37;2.07;;;;;;;;;;5095007;28;20544;-75
2023/12/10 11:41:04;;;;;;;55.57;2.30;;;;;;;;;;5094643;28;20535;-74
2023/12/10 11:43:31;;;;;;;55.70;2.40;;;;;;;;;;5094049;28;20522;-75
2023/12/10 11:45:58;;;;;;;55.57;2.13;;;;;;;;;;5093303;28;20965;-75
2023/12/10 11:48:25;;;;;;;55.50;2.10;;;;;;;;;;5088437;28;21126;-74
2023/12/10 11:50:53;;;;;;;55.60;1.97;;;;;;;;;;5094163;28;20993;-75
2023/12/10 11:53:20;;;;;;;55.33;2.20;;;;;;;;;;5093676;28;20547;-74
2023/12/10 11:55:51;;;;;;;55.47;2.40;;;;;;;;;;5093896;28;20470;-74
2023/12/10 11:58:25;;;;;;;55.37;1.77;;;;;;;;;;5094012;28;20941;-73
2023/12/10 12:00:59;;;;;;;55.80;2.07;;;;;;;;;;5094201;28;20981;-73
2023/12/10 12:03:27;;;;;;;55.50;2.00;;;;;;;;;;5093501;28;21027;-72
2023/12/10 12:05:54;;;;;;;55.90;2.70;;;;;;;;;;5093590;28;20529;-73
2023/12/10 12:08:21;;;;;;;54.97;2.10;;;;;;;;;;5093661;28;20533;-73
2023/12/10 12:10:51;;;;;;;55.67;2.10;;;;;;;;;;5094563;28;20848;-74
2023/12/10 12:13:18;;;;;;;55.80;2.00;;;;;;;;;;5094724;28;20568;-74
2023/12/10 12:15:46;;;;;;;55.47;1.70;;;;;;;;;;5094196;28;21059;-74
2023/12/10 12:18:13;;;;;;;59.77;2.50;;;;;;;;;;5094343;28;20464;-74
2023/12/10 12:20:40;;;;;;;55.23;2.07;;;;;;;;;;5094550;28;20453;-74
2023/12/10 12:23:08;;;;;;;55.57;2.00;;;;;;;;;;5094233;28;20563;-74
2023/12/10 12:25:37;;;;;;;55.30;2.10;;;;;;;;;;5093722;28;20925;-73
2023/12/10 12:28:07;;;;;;;55.37;1.93;;;;;;;;;;5093875;28;20485;-74
2023/12/10 12:30:34;;;;;;;55.50;1.77;;;;;;;;;;5085671;28;20447;-74
2023/12/10 12:33:02;;;;;;;55.27;1.73;;;;;;;;;;5093245;28;20900;-74
2023/12/10 12:35:29;;;;;;;55.47;1.83;;;;;;;;;;5092635;28;20530;-75
2023/12/10 12:37:56;;;;;;;55.90;2.13;;;;;;;;;;5086163;28;20960;-75
2023/12/10 12:40:24;;;;;;;55.43;2.10;;;;;;;;;;5093061;28;20516;-73
2023/12/10 12:42:51;;;;;;;55.20;2.07;;;;;;;;;;5093302;28;20550;-75
2023/12/10 12:45:19;;;;;;;55.60;2.10;;;;;;;;;;5092867;28;20523;-75
2023/12/10 12:47:47;;;;;;;55.50;2.17;;;;;;;;;;5093496;28;20594;-75
2023/12/10 12:50:15;;;;;;;55.37;2.00;;;;;;;;;;5092945;28;20454;-75
2023/12/10 12:52:42;;;;;;;55.90;2.27;;;;;;;;;;5092672;28;20534;-75
2023/12/10 12:55:09;;;;;;;56.00;2.20;;;;;;;;;;5093198;28;20832;-74
2023/12/10 12:57:37;;;;;;;55.37;2.10;;;;;;;;;;5093136;28;20883;-75
2023/12/10 13:00:05;;;;;;;55.60;1.90;;;;;;;;;;5093654;28;20891;-75
2023/12/10 13:02:34;;;;;;;55.57;2.10;;;;;;;;;;5084531;28;20497;-75
2023/12/10 13:05:01;;;;;;;55.80;1.83;;;;;;;;;;5092899;28;20533;-73
2023/12/10 13:07:28;;;;;;;55.70;1.97;;;;;;;;;;5092456;28;20483;-73
2023/12/10 13:09:55;;;;;;;63.43;3.83;;;;;;;;;;5093092;28;20532;-73
2023/12/10 13:12:22;;;;;;;55.37;1.90;;;;;;;;;;5092622;28;20504;-73
2023/12/10 13:14:50;;;;;;;55.80;2.30;;;;;;;;;;5092504;28;20875;-73
2023/12/10 13:17:18;;;;;;;55.60;2.10;;;;;;;;;;5092295;28;20457;-73
2023/12/10 13:19:46;;;;;;;57.10;2.67;;;;;;;;;;5092463;28;20544;-73
2023/12/10 13:22:14;;;;;;;56.23;3.10;;;;;;;;;;5092096;28;20535;-72
2023/12/10 13:24:41;;;;;;;55.33;1.90;;;;;;;;;;5089552;28;20457;-74
2023/12/10 13:27:08;;;;;;;55.40;2.23;;;;;;;;;;5088660;28;20485;-74
2023/12/10 13:29:35;;;;;;;56.87;2.50;;;;;;;;;;5092167;28;20457;-73
2023/12/10 13:32:02;;;;;;;55.83;1.80;;;;;;;;;;5092066;28;20475;-73
2023/12/10 13:34:30;;;;;;;56.10;2.10;;;;;;;;;;5091956;28;20513;-72
2023/12/10 13:36:58;;;;;;;55.67;1.97;;;;;;;;;;5092176;28;20462;-72
2023/12/10 13:39:25;;;;;;;55.27;2.00;;;;;;;;;;5092239;28;20543;-73
2023/12/10 13:41:52;;;;;;;55.27;2.00;;;;;;;;;;5092129;28;20448;-75
2023/12/10 13:44:20;;;;;;;55.50;2.40;;;;;;;;;;5092027;28;20859;-74
2023/12/10 13:46:47;;;;;;;56.30;2.27;;;;;;;;;;5091078;28;20488;-72
2023/12/10 13:49:15;;;;;;;55.57;2.00;;;;;;;;;;5091430;28;20445;-72
2023/12/10 13:51:43;;;;;;;55.27;1.83;;;;;;;;;;5091822;28;20460;-73
2023/12/10 13:54:11;;;;;;;55.77;2.03;;;;;;;;;;5091892;28;20533;-72
2023/12/10 13:56:38;;;;;;;55.33;1.87;;;;;;;;;;5091751;28;20549;-75
2023/12/10 13:59:06;;;;;;;55.50;1.83;;;;;;;;;;5091777;28;20962;-74
2023/12/10 14:01:35;;;;;;;55.70;2.20;;;;;;;;;;5091196;28;20541;-74
2023/12/10 14:04:02;;;;;;;55.80;2.00;;;;;;;;;;5091795;28;20468;-75
2023/12/10 14:06:30;;;;;;;55.70;1.70;;;;;;;;;;5091633;28;20484;-75
2023/12/10 14:08:57;;;;;;;55.83;2.00;;;;;;;;;;5091808;28;20460;-73
2023/12/10 14:11:25;;;;;;;55.03;2.00;;;;;;;;;;5091635;28;20478;-73
2023/12/10 14:13:53;;;;;;;55.70;1.90;;;;;;;;;;5091933;28;20492;-73
2023/12/10 14:16:20;;;;;;;55.50;2.23;;;;;;;;;;5091418;28;20455;-74
2023/12/10 14:18:48;;;;;;;55.30;2.17;;;;;;;;;;5091913;28;20544;-74
2023/12/10 14:21:15;;;;;;;55.57;2.20;;;;;;;;;;5091835;28;20531;-74
2023/12/10 14:23:42;;;;;;;55.17;2.00;;;;;;;;;;5091566;28;20469;-74
2023/12/10 14:26:10;;;;;;;55.47;1.90;;;;;;;;;;5091596;28;20817;-73
2023/12/10 14:28:38;;;;;;;56.40;3.23;;;;;;;;;;5091262;28;20559;-75
2023/12/10 14:31:05;;;;;;;55.80;2.33;;;;;;;;;;5091798;28;20445;-74
2023/12/10 14:33:32;;;;;;;56.00;2.30;;;;;;;;;;5091418;28;20545;-74